Time;durP1;ratioP1;P1;durP2;ratioP2;P2;SDS_P1;SDS_P2;PMS_P1;PMS_P2;Temp;Humidity;BMP_temperature;BMP_pressure;BME280_temperature;BME280_humidity;BME280_pressure;Samples;Min_cycle;Max_cycle;Signal;HPM_P1;HPM_P2
2023/06/10 00:01:13;;;;;;;8.55;3.97;;;24.40;77.90;;;;;;5046156;28;20132;-67
2023/06/10 00:03:41;;;;;;;6.97;4.07;;;24.50;74.40;;;;;;5052874;28;20443;-75
2023/06/10 00:06:06;;;;;;;6.45;4.15;;;24.40;77.40;;;;;;5053036;28;20566;-62
2023/06/10 00:08:33;;;;;;;7.13;3.72;;;24.50;74.40;;;;;;5053711;28;20048;-62
2023/06/10 00:10:58;;;;;;;9.98;4.43;;;24.50;74.60;;;;;;5045136;28;20049;-62
2023/06/10 00:13:25;;;;;;;6.60;4.03;;;24.40;74.50;;;;;;5045066;28;20126;-64
2023/06/10 00:15:50;;;;;;;6.90;3.97;;;24.40;74.60;;;;;;5048897;28;20053;-61
2023/06/10 00:18:17;;;;;;;9.15;4.43;;;24.50;74.40;;;;;;5038597;28;20074;-61
2023/06/10 00:20:43;;;;;;;7.43;4.05;;;24.50;74.50;;;;;;5033648;28;20518;-62
2023/06/10 00:23:09;;;;;;;6.88;4.00;;;24.20;74.30;;;;;;5033627;28;20041;-61
2023/06/10 00:25:35;;;;;;;8.80;4.20;;;24.40;74.40;;;;;;5033565;28;20403;-64
2023/06/10 00:28:01;;;;;;;9.85;4.20;;;24.20;74.40;;;;;;5041238;28;20128;-62
2023/06/10 00:30:27;;;;;;;7.85;4.25;;;24.40;74.30;;;;;;5043585;28;20200;-61
2023/06/10 00:32:52;;;;;;;9.13;4.38;;;24.40;74.20;;;;;;5047938;28;20037;-61
2023/06/10 00:35:18;;;;;;;7.55;4.18;;;24.30;74.30;;;;;;5032429;28;20080;-61
2023/06/10 00:37:44;;;;;;;6.93;3.90;;;24.40;74.30;;;;;;5038661;28;20045;-68
2023/06/10 00:40:10;;;;;;;6.90;4.03;;;24.30;78.00;;;;;;5050887;28;20045;-61
2023/06/10 00:42:36;;;;;;;7.00;3.58;;;24.20;73.80;;;;;;5053222;28;20115;-62
2023/06/10 00:45:02;;;;;;;7.30;4.18;;;24.20;74.90;;;;;;5043984;28;20041;-61
2023/06/10 00:47:28;;;;;;;7.10;4.00;;;24.00;74.10;;;;;;5043215;28;20110;-65
2023/06/10 00:49:53;;;;;;;7.82;4.05;;;24.40;74.30;;;;;;5004005;28;20045;-65
2023/06/10 00:52:20;;;;;;;10.63;4.50;;;24.20;77.40;;;;;;5031832;28;20042;-63
2023/06/10 00:54:45;;;;;;;6.85;4.13;;;24.20;77.80;;;;;;5030528;28;20051;-61
2023/06/10 00:57:12;;;;;;;8.77;4.10;;;24.20;74.10;;;;;;5038203;28;20049;-65
2023/06/10 00:59:39;;;;;;;8.23;4.05;;;24.20;77.10;;;;;;5047354;28;20037;-61
2023/06/10 01:02:05;;;;;;;6.75;3.67;;;23.80;74.10;;;;;;5045549;28;20506;-64
2023/06/10 01:04:31;;;;;;;7.70;4.35;;;24.30;74.20;;;;;;5038991;28;20128;-62
2023/06/10 01:07:03;;;;;;;7.03;4.38;;;24.20;74.20;;;;;;5051854;28;20483;-64
2023/06/10 01:09:33;;;;;;;8.20;4.13;;;24.20;72.80;;;;;;5051591;28;20037;-62
2023/06/10 01:12:08;;;;;;;7.63;4.30;;;24.10;77.50;;;;;;5050531;28;20056;-62
2023/06/10 01:14:35;;;;;;;6.78;4.18;;;24.10;74.30;;;;;;5038288;28;20049;-78
2023/06/10 01:17:02;;;;;;;7.57;3.88;;;24.10;74.30;;;;;;5037795;28;20044;-63
2023/06/10 01:19:30;;;;;;;6.65;3.90;;;24.10;74.20;;;;;;5043164;28;20051;-61
2023/06/10 01:22:00;;;;;;;6.65;4.03;;;24.10;77.40;;;;;;5051705;28;20045;-62
2023/06/10 01:24:26;;;;;;;7.10;4.20;;;24.30;77.30;;;;;;5052198;28;20467;-61
2023/06/10 01:26:52;;;;;;;8.57;3.97;;;24.10;74.20;;;;;;5049556;28;20433;-63
2023/06/10 01:29:21;;;;;;;6.47;3.78;;;24.00;73.80;;;;;;5049986;28;20509;-64
2023/06/10 01:31:49;;;;;;;7.95;4.03;;;24.10;74.10;;;;;;5034509;28;20135;-63
2023/06/10 01:34:16;;;;;;;7.18;4.00;;;24.00;76.90;;;;;;5052482;28;20099;-63
2023/06/10 01:36:45;;;;;;;8.02;3.60;;;24.00;77.50;;;;;;5042438;28;20063;-63
2023/06/10 01:39:11;;;;;;;7.20;3.88;;;23.90;74.10;;;;;;5032183;28;20041;-61
2023/06/10 01:41:36;;;;;;;9.55;3.65;;;23.90;76.90;;;;;;5031373;28;20387;-61
2023/06/10 01:44:02;;;;;;;8.77;4.13;;;24.00;77.80;;;;;;4998665;28;20049;-62
2023/06/10 01:46:28;;;;;;;6.50;3.95;;;23.80;73.90;;;;;;5033553;28;20440;-64
2023/06/10 01:48:54;;;;;;;6.65;3.65;;;23.80;77.10;;;;;;5040638;28;20048;-73
2023/06/10 01:51:20;;;;;;;7.13;3.63;;;23.80;74.00;;;;;;5044250;28;20044;-70
2023/06/10 01:53:45;;;;;;;9.00;3.70;;;23.70;77.10;;;;;;5039648;28;20561;-69
2023/06/10 01:56:16;;;;;;;8.10;3.70;;;23.90;77.30;;;;;;5043076;28;20040;-68
2023/06/10 01:58:42;;;;;;;9.43;3.70;;;23.80;74.00;;;;;;5045756;28;20123;-76
2023/06/10 02:01:09;;;;;;;8.88;4.18;;;23.80;77.10;;;;;;5039196;28;20034;-78
2023/06/10 02:03:34;;;;;;;10.93;3.60;;;24.10;74.50;;;;;;5055761;28;20071;-78
2023/06/10 02:06:00;;;;;;;8.18;3.88;;;24.10;77.30;;;;;;5038808;28;20491;-76
2023/06/10 02:08:27;;;;;;;6.15;3.08;;;24.00;77.30;;;;;;5037636;28;20514;-64
2023/06/10 02:10:53;;;;;;;5.88;3.25;;;23.90;74.20;;;;;;5039405;28;20053;-64
2023/06/10 02:13:19;;;;;;;6.78;3.85;;;23.90;74.20;;;;;;5035542;28;20555;-65
2023/06/10 02:15:45;;;;;;;6.07;3.40;;;23.90;74.30;;;;;;5034684;28;20052;-63
2023/06/10 02:18:11;;;;;;;6.80;3.53;;;23.90;74.30;;;;;;5038459;28;20037;-61
2023/06/10 02:20:38;;;;;;;7.03;4.05;;;23.90;74.30;;;;;;5046722;28;20057;-64
2023/06/10 02:23:03;;;;;;;8.70;3.35;;;23.80;74.10;;;;;;5039053;28;20501;-60
2023/06/10 02:25:29;;;;;;;6.63;3.20;;;23.90;77.30;;;;;;5055744;28;20116;-61
2023/06/10 02:27:55;;;;;;;7.18;3.88;;;24.10;74.40;;;;;;5039022;28;20114;-65
2023/06/10 02:30:21;;;;;;;9.85;4.10;;;24.00;74.30;;;;;;5051722;28;20037;-63
2023/06/10 02:32:47;;;;;;;6.43;3.20;;;24.00;77.60;;;;;;5055186;28;20136;-61
2023/06/10 02:35:14;;;;;;;6.97;3.40;;;24.00;77.40;;;;;;5054329;28;20045;-61
2023/06/10 02:37:40;;;;;;;6.18;3.42;;;23.80;77.40;;;;;;5035748;28;20053;-61
2023/06/10 02:40:06;;;;;;;6.43;3.70;;;24.00;74.40;;;;;;5047743;28;20057;-65
2023/06/10 02:42:32;;;;;;;7.57;3.85;;;23.80;74.00;;;;;;5055025;28;20487;-61
2023/06/10 02:44:58;;;;;;;9.77;3.65;;;24.00;74.60;;;;;;5038199;28;20048;-64
2023/06/10 02:47:23;;;;;;;7.45;3.47;;;23.90;74.60;;;;;;5045109;28;20131;-60
2023/06/10 02:49:49;;;;;;;6.57;3.75;;;24.20;78.30;;;;;;5048599;28;20053;-64
2023/06/10 02:52:15;;;;;;;7.88;3.75;;;23.80;77.70;;;;;;5043771;28;20041;-77
2023/06/10 02:54:40;;;;;;;6.35;3.33;;;23.80;74.60;;;;;;5045908;28;20053;-61
2023/06/10 02:57:06;;;;;;;7.18;3.42;;;23.70;78.10;;;;;;5034640;28;20097;-63
2023/06/10 02:59:32;;;;;;;7.95;4.03;;;24.00;78.00;;;;;;5048916;28;20411;-62
2023/06/10 03:02:01;;;;;;;6.55;3.63;;;23.70;78.70;;;;;;5037565;28;20041;-66
2023/06/10 03:04:28;;;;;;;7.00;3.88;;;23.80;75.10;;;;;;5054962;28;20052;-63
2023/06/10 03:06:54;;;;;;;6.90;3.28;;;23.80;78.40;;;;;;5053971;28;20037;-62
2023/06/10 03:09:20;;;;;;;7.82;3.58;;;23.70;75.00;;;;;;5052181;28;20045;-61
2023/06/10 03:11:46;;;;;;;6.55;3.83;;;23.80;78.20;;;;;;5051382;28;20104;-75
2023/06/10 03:14:11;;;;;;;8.73;4.30;;;23.60;75.10;;;;;;5050992;28;20068;-66
2023/06/10 03:16:40;;;;;;;6.72;3.65;;;24.00;79.10;;;;;;5053821;28;20037;-65
2023/06/10 03:19:07;;;;;;;7.88;3.70;;;23.60;75.30;;;;;;5041359;28;20052;-62
2023/06/10 03:21:34;;;;;;;8.63;4.15;;;23.70;75.30;;;;;;5051003;28;20057;-64
2023/06/10 03:24:00;;;;;;;7.25;4.25;;;23.80;75.60;;;;;;5035881;28;20052;-61
2023/06/10 03:26:27;;;;;;;7.38;3.72;;;23.70;78.60;;;;;;5038140;28;20041;-61
2023/06/10 03:28:53;;;;;;;7.13;3.60;;;23.80;78.30;;;;;;5034511;28;20053;-74
2023/06/10 03:31:19;;;;;;;7.50;3.20;;;23.80;78.40;;;;;;5052383;28;20098;-65
2023/06/10 03:33:44;;;;;;;7.93;3.97;;;23.60;78.20;;;;;;5050884;28;20117;-62
2023/06/10 03:36:10;;;;;;;6.80;3.40;;;23.70;75.20;;;;;;5035526;28;20112;-60
2023/06/10 03:38:36;;;;;;;6.85;3.53;;;23.80;75.20;;;;;;5045870;28;20478;-63
2023/06/10 03:41:02;;;;;;;7.53;3.65;;;23.90;78.20;;;;;;5037055;28;20045;-61
2023/06/10 03:43:28;;;;;;;7.28;3.47;;;23.90;78.80;;;;;;5033923;28;20088;-65
2023/06/10 03:45:54;;;;;;;5.75;3.50;;;24.30;75.50;;;;;;5033926;28;20076;-62
2023/06/10 03:48:20;;;;;;;9.98;3.78;;;24.00;75.30;;;;;;5033936;28;20048;-62
2023/06/10 03:50:47;;;;;;;7.47;3.58;;;23.50;78.30;;;;;;5032623;28;20045;-64
2023/06/10 03:53:13;;;;;;;7.35;3.72;;;23.80;79.00;;;;;;5043224;28;20562;-78
2023/06/10 03:55:39;;;;;;;8.52;4.00;;;23.80;78.70;;;;;;5051121;28;20045;-65
2023/06/10 03:58:05;;;;;;;8.10;3.95;;;23.80;75.50;;;;;;5046184;28;20395;-63
2023/06/10 04:00:30;;;;;;;7.97;3.20;;;23.70;78.40;;;;;;5044544;28;20046;-61
2023/06/10 04:02:57;;;;;;;10.18;4.22;;;23.70;78.40;;;;;;5042015;28;20176;-61
2023/06/10 04:05:23;;;;;;;9.23;3.90;;;23.80;78.50;;;;;;5037173;28;20044;-62
2023/06/10 04:07:49;;;;;;;6.78;3.42;;;23.60;75.40;;;;;;5046949;28;20041;-65
2023/06/10 04:10:15;;;;;;;6.85;3.67;;;24.00;75.60;;;;;;5033503;28;20041;-62
2023/06/10 04:12:41;;;;;;;6.95;3.65;;;23.70;75.50;;;;;;5032506;28;20724;-62
2023/06/10 04:15:07;;;;;;;10.10;3.72;;;23.70;75.40;;;;;;5033174;28;20046;-64
2023/06/10 04:17:33;;;;;;;7.22;3.70;;;23.60;75.40;;;;;;5033282;28;20049;-63
2023/06/10 04:19:58;;;;;;;10.82;3.95;;;23.90;78.90;;;;;;5034343;28;20033;-61
2023/06/10 04:22:25;;;;;;;6.50;3.60;;;23.60;75.50;;;;;;5051145;28;20570;-72
2023/06/10 04:24:50;;;;;;;8.65;3.70;;;23.90;75.70;;;;;;5040789;28;20049;-62
2023/06/10 04:27:16;;;;;;;9.57;3.75;;;24.00;78.70;;;;;;5042938;28;20045;-63
2023/06/10 04:29:42;;;;;;;7.25;3.67;;;23.90;75.70;;;;;;5053044;28;20055;-61
2023/06/10 04:32:07;;;;;;;8.73;4.05;;;23.60;78.80;;;;;;5052016;28;20128;-64
2023/06/10 04:34:34;;;;;;;7.40;3.78;;;23.90;75.70;;;;;;5047570;28;20128;-65
2023/06/10 04:37:00;;;;;;;9.23;3.92;;;24.10;79.70;;;;;;5039979;28;20511;-61
2023/06/10 04:39:25;;;;;;;6.35;3.38;;;23.80;78.80;;;;;;5047836;28;20083;-72
2023/06/10 04:41:51;;;;;;;7.38;3.42;;;23.80;79.00;;;;;;5051098;28;20049;-61
2023/06/10 04:44:18;;;;;;;8.00;3.45;;;23.90;78.90;;;;;;5046752;28;20045;-61
2023/06/10 04:46:44;;;;;;;9.93;3.90;;;23.90;79.00;;;;;;5053042;28;20049;-59
2023/06/10 04:49:10;;;;;;;7.45;3.45;;;23.70;78.80;;;;;;5050905;28;20049;-62
2023/06/10 04:51:35;;;;;;;7.53;3.80;;;24.00;78.70;;;;;;5051999;28;20040;-61
2023/06/10 04:54:03;;;;;;;8.63;3.88;;;24.00;75.70;;;;;;5049708;28;20103;-63
2023/06/10 04:56:30;;;;;;;7.13;3.72;;;24.00;75.80;;;;;;5037893;28;20045;-69
2023/06/10 04:58:59;;;;;;;7.00;3.60;;;24.00;75.70;;;;;;5033025;28;20052;-66
2023/06/10 05:01:24;;;;;;;8.48;3.67;;;24.40;75.70;;;;;;5051896;28;20439;-78
2023/06/10 05:03:50;;;;;;;6.47;3.45;;;24.70;75.10;;;;;;5041094;28;20148;-79
2023/06/10 05:06:16;;;;;;;7.28;3.58;;;25.20;77.90;;;;;;5042624;28;20045;-78
2023/06/10 05:08:42;;;;;;;7.50;3.67;;;25.20;74.60;;;;;;5034456;28;20138;-68
2023/06/10 05:11:08;;;;;;;7.05;3.63;;;25.30;74.20;;;;;;5041390;28;20621;-77
2023/06/10 05:13:34;;;;;;;8.68;3.75;;;25.50;74.00;;;;;;5048483;28;20124;-70
2023/06/10 05:16:00;;;;;;;9.30;3.67;;;25.70;74.30;;;;;;5051018;28;20116;-63
2023/06/10 05:18:26;;;;;;;7.68;3.00;;;26.10;73.30;;;;;;5032480;28;20080;-64
2023/06/10 05:20:53;;;;;;;7.90;3.70;;;26.00;73.00;;;;;;5032130;28;20053;-62
2023/06/10 05:23:23;;;;;;;6.05;3.22;;;26.10;72.60;;;;;;5052025;28;20087;-61
2023/06/10 05:25:49;;;;;;;6.60;3.30;;;26.30;71.00;;;;;;5034371;28;20042;-62
2023/06/10 05:28:15;;;;;;;6.15;3.30;;;26.40;72.00;;;;;;5032070;28;20106;-61
2023/06/10 05:30:40;;;;;;;8.05;3.17;;;26.40;71.60;;;;;;5032328;28;20041;-62
2023/06/10 05:33:06;;;;;;;7.97;3.22;;;26.40;71.40;;;;;;5049059;28;20041;-62
2023/06/10 05:35:32;;;;;;;7.15;3.38;;;26.60;71.30;;;;;;5035696;28;20056;-61
2023/06/10 05:37:58;;;;;;;7.03;3.55;;;26.70;71.80;;;;;;5048664;28;20507;-65
2023/06/10 05:40:23;;;;;;;7.32;4.03;;;26.80;70.80;;;;;;5051830;28;20045;-70
2023/06/10 05:42:49;;;;;;;5.70;3.20;;;27.00;70.90;;;;;;5051664;28;20487;-62
2023/06/10 05:45:15;;;;;;;6.47;3.90;;;27.10;70.80;;;;;;5048135;28;20434;-63
2023/06/10 05:47:41;;;;;;;6.90;3.40;;;26.80;70.60;;;;;;5051831;28;20481;-65
2023/06/10 05:50:08;;;;;;;7.78;3.88;;;27.20;70.60;;;;;;5050379;28;20041;-66
2023/06/10 05:52:35;;;;;;;6.82;3.92;;;27.20;70.10;;;;;;5040875;28;20128;-63
2023/06/10 05:55:02;;;;;;;7.43;4.00;;;27.10;70.40;;;;;;5033412;28;20413;-63
2023/06/10 05:57:27;;;;;;;7.00;3.47;;;27.30;70.60;;;;;;5050775;28;20041;-63
2023/06/10 05:59:53;;;;;;;6.68;3.55;;;27.30;70.40;;;;;;5051825;28;20395;-63
2023/06/10 06:02:19;;;;;;;8.85;3.67;;;27.40;70.20;;;;;;5049342;28;20430;-70
2023/06/10 06:04:45;;;;;;;5.82;3.35;;;27.50;70.20;;;;;;5031467;28;20049;-65
2023/06/10 06:07:11;;;;;;;6.85;3.75;;;27.50;70.00;;;;;;5045496;28;20033;-63
2023/06/10 06:09:37;;;;;;;8.20;4.00;;;27.70;70.50;;;;;;5051633;28;20483;-61
2023/06/10 06:12:03;;;;;;;7.75;3.90;;;27.50;70.20;;;;;;5051839;28;20410;-64
2023/06/10 06:14:30;;;;;;;6.95;3.78;;;27.50;69.90;;;;;;5051365;28;20048;-62
2023/06/10 06:16:56;;;;;;;8.40;3.75;;;27.40;70.00;;;;;;5048219;28;20084;-63
2023/06/10 06:19:22;;;;;;;7.20;3.75;;;27.50;69.90;;;;;;5035276;28;20084;-62
2023/06/10 06:21:48;;;;;;;8.73;3.80;;;27.50;69.90;;;;;;5043098;28;20502;-65
2023/06/10 06:24:15;;;;;;;7.38;3.70;;;27.70;70.00;;;;;;5047546;28;20045;-66
2023/06/10 06:26:40;;;;;;;6.13;3.55;;;28.00;70.30;;;;;;5045146;28;20076;-62
2023/06/10 06:29:06;;;;;;;7.03;3.60;;;28.00;69.90;;;;;;5046897;28;20083;-61
2023/06/10 06:31:32;;;;;;;7.05;3.50;;;27.70;69.80;;;;;;5044495;28;20045;-63
2023/06/10 06:33:58;;;;;;;9.05;3.60;;;27.60;69.60;;;;;;5034444;28;20045;-62
2023/06/10 06:36:23;;;;;;;8.75;3.75;;;27.80;69.80;;;;;;5043711;28;20052;-62
2023/06/10 06:38:49;;;;;;;10.88;4.30;;;27.70;69.40;;;;;;5053410;28;20056;-61
2023/06/10 06:41:15;;;;;;;10.98;4.28;;;27.70;69.30;;;;;;5037979;28;20053;-73
2023/06/10 06:43:42;;;;;;;8.75;4.78;;;27.70;69.00;;;;;;5041568;28;20045;-66
2023/06/10 06:46:08;;;;;;;9.40;4.80;;;27.70;68.90;;;;;;5037528;28;20041;-65
2023/06/10 06:48:33;;;;;;;8.27;4.03;;;27.50;68.50;;;;;;5046582;28;20106;-70
2023/06/10 06:50:59;;;;;;;9.45;4.60;;;27.20;68.50;;;;;;5036377;28;20048;-71
2023/06/10 06:53:25;;;;;;;11.95;5.25;;;27.20;68.60;;;;;;5034872;28;20128;-74
2023/06/10 06:55:51;;;;;;;11.13;5.00;;;27.30;69.10;;;;;;5044692;28;20045;-70
2023/06/10 06:58:17;;;;;;;7.95;4.57;;;27.20;69.00;;;;;;5045961;28;20041;-71
2023/06/10 07:00:42;;;;;;;10.20;4.97;;;27.30;68.90;;;;;;5045511;28;20041;-62
2023/06/10 07:03:08;;;;;;;9.68;5.00;;;27.50;69.00;;;;;;5054017;28;20041;-62
2023/06/10 07:05:34;;;;;;;8.07;4.18;;;27.10;68.50;;;;;;5053822;28;20037;-68
2023/06/10 07:08:00;;;;;;;11.68;4.90;;;26.80;68.60;;;;;;5039584;28;20507;-73
2023/06/10 07:10:26;;;;;;;11.57;4.57;;;26.90;68.90;;;;;;5034328;28;20041;-69
2023/06/10 07:12:51;;;;;;;11.75;4.53;;;26.70;69.20;;;;;;5051828;28;20049;-67
2023/06/10 07:15:17;;;;;;;8.90;4.63;;;26.90;69.60;;;;;;5050796;28;20518;-72
2023/06/10 07:17:44;;;;;;;9.52;4.63;;;26.60;68.80;;;;;;5042876;28;20073;-71
2023/06/10 07:20:10;;;;;;;10.60;4.72;;;26.90;69.10;;;;;;5033961;28;20556;-71
2023/06/10 07:22:38;;;;;;;14.55;5.00;;;27.00;69.00;;;;;;5035585;28;20076;-69
2023/06/10 07:25:05;;;;;;;8.15;4.40;;;26.50;69.00;;;;;;5041172;28;20494;-66
2023/06/10 07:27:31;;;;;;;9.00;4.10;;;26.60;69.00;;;;;;5045148;28;20404;-77
2023/06/10 07:29:56;;;;;;;10.77;4.55;;;26.90;69.40;;;;;;5053311;28;20049;-70
2023/06/10 07:32:23;;;;;;;9.05;4.78;;;26.70;69.50;;;;;;5047948;28;20057;-67
2023/06/10 07:34:50;;;;;;;10.82;4.32;;;26.80;69.60;;;;;;5052695;28;20041;-67
2023/06/10 07:37:16;;;;;;;8.68;4.35;;;26.90;69.50;;;;;;5051187;28;20060;-73
2023/06/10 07:39:43;;;;;;;8.00;3.80;;;26.90;69.10;;;;;;5053207;28;20053;-70
2023/06/10 07:42:09;;;;;;;8.07;4.13;;;27.00;69.30;;;;;;5051865;28;20470;-66
2023/06/10 07:44:35;;;;;;;9.13;4.03;;;26.90;70.00;;;;;;5051338;28;20055;-71
2023/06/10 07:47:01;;;;;;;10.38;4.45;;;26.80;69.60;;;;;;5044429;28;20041;-76
2023/06/10 07:49:27;;;;;;;9.38;4.40;;;26.90;69.80;;;;;;5044702;28;20085;-72
2023/06/10 07:51:54;;;;;;;8.93;4.18;;;26.80;69.80;;;;;;5033600;28;20385;-67
2023/06/10 07:54:20;;;;;;;8.45;4.35;;;26.70;69.80;;;;;;5043718;28;20056;-65
2023/06/10 07:56:46;;;;;;;9.38;4.60;;;26.70;69.50;;;;;;5051561;28;20033;-68
2023/06/10 07:59:13;;;;;;;10.02;4.32;;;26.90;70.00;;;;;;5045961;28;20501;-70
2023/06/10 08:01:39;;;;;;;9.48;4.65;;;26.90;70.10;;;;;;5052720;28;20071;-67
2023/06/10 08:04:06;;;;;;;8.88;3.85;;;27.00;70.10;;;;;;5053262;28;20102;-73
2023/06/10 08:06:31;;;;;;;8.13;4.10;;;27.00;70.20;;;;;;5048085;28;20053;-71
2023/06/10 08:08:57;;;;;;;9.38;4.10;;;27.00;70.20;;;;;;5049353;28;20045;-67
2023/06/10 08:11:23;;;;;;;8.25;3.92;;;26.90;69.90;;;;;;5040656;28;20060;-80
2023/06/10 08:13:49;;;;;;;8.25;4.00;;;27.00;69.40;;;;;;5044750;28;20160;-74
2023/06/10 08:16:16;;;;;;;8.90;4.18;;;27.00;70.10;;;;;;5033287;28;20046;-70
2023/06/10 08:18:41;;;;;;;8.98;4.03;;;26.90;70.20;;;;;;5049100;28;20049;-67
2023/06/10 08:21:07;;;;;;;12.07;4.10;;;26.80;69.80;;;;;;5039848;28;20053;-71
2023/06/10 08:23:33;;;;;;;10.32;4.45;;;27.00;69.90;;;;;;5037702;28;20047;-68
2023/06/10 08:25:59;;;;;;;11.90;4.10;;;26.90;69.60;;;;;;5035713;28;20049;-66
2023/06/10 08:28:24;;;;;;;10.45;4.57;;;27.10;69.60;;;;;;5044640;28;20110;-71
2023/06/10 08:30:50;;;;;;;7.65;4.18;;;27.30;69.90;;;;;;5041734;28;20053;-71
2023/06/10 08:33:16;;;;;;;8.93;3.90;;;26.90;69.60;;;;;;5052777;28;20125;-71
2023/06/10 08:35:42;;;;;;;10.75;3.97;;;26.70;69.60;;;;;;5052510;28;20045;-67
2023/06/10 08:38:08;;;;;;;8.55;4.07;;;27.10;70.20;;;;;;5050861;28;20049;-68
2023/06/10 08:40:33;;;;;;;7.55;4.40;;;27.10;70.00;;;;;;5040503;28;20071;-70
2023/06/10 08:43:07;;;;;;;10.98;4.07;;;27.10;69.70;;;;;;5037888;28;20041;-74
2023/06/10 08:45:35;;;;;;;9.85;4.40;;;26.90;70.10;;;;;;5032828;28;20486;-65
2023/06/10 08:48:02;;;;;;;9.40;3.95;;;27.10;70.00;;;;;;5048703;28;20045;-71
2023/06/10 08:50:30;;;;;;;8.82;3.88;;;26.80;69.80;;;;;;5043569;28;20042;-62
2023/06/10 08:52:57;;;;;;;7.30;3.88;;;27.00;69.90;;;;;;5047483;28;20082;-62
2023/06/10 08:55:31;;;;;;;7.78;3.70;;;27.30;70.10;;;;;;5040429;28;20044;-62
2023/06/10 08:58:01;;;;;;;6.80;3.70;;;27.10;70.40;;;;;;5037823;28;20388;-61
2023/06/10 09:00:27;;;;;;;12.57;4.32;;;27.20;70.30;;;;;;5031238;28;20399;-62
2023/06/10 09:02:53;;;;;;;8.93;3.75;;;27.00;70.20;;;;;;5031239;28;20049;-62
2023/06/10 09:05:19;;;;;;;10.57;4.20;;;26.90;69.90;;;;;;5032941;28;20047;-61
2023/06/10 09:07:46;;;;;;;13.00;4.25;;;27.20;70.30;;;;;;5031835;28;20095;-74
2023/06/10 09:10:12;;;;;;;14.55;4.55;;;27.10;70.30;;;;;;5032486;28;20050;-74
2023/06/10 09:12:38;;;;;;;12.10;4.13;;;27.10;70.10;;;;;;5032298;28;20046;-67
2023/06/10 09:15:04;;;;;;;45.15;6.35;;;27.30;70.60;;;;;;5039384;28;20099;-69
2023/06/10 09:17:30;;;;;;;45.42;7.50;;;27.20;70.60;;;;;;5044539;28;20052;-67
2023/06/10 09:19:57;;;;;;;52.38;6.90;;;27.20;70.90;;;;;;5038192;28;20037;-70
2023/06/10 09:22:23;;;;;;;23.98;5.10;;;27.30;71.20;;;;;;5031207;28;20049;-74
2023/06/10 09:24:49;;;;;;;22.98;5.13;;;27.40;71.40;;;;;;5039220;28;20116;-70
2023/06/10 09:27:15;;;;;;;49.05;6.85;;;27.40;71.50;;;;;;5039248;28;20464;-74
2023/06/10 09:29:57;;;;;;;96.28;10.52;;;27.10;71.20;;;;;;5050540;28;20120;-79
2023/06/10 09:32:23;;;;;;;66.63;9.45;;;27.20;72.00;;;;;;5040208;28;20056;-75
2023/06/10 09:34:50;;;;;;;53.38;7.75;;;27.20;71.40;;;;;;5032422;28;20041;-69
2023/06/10 09:37:25;;;;;;;60.13;8.95;;;27.10;71.50;;;;;;5032439;28;20053;-72
2023/06/10 09:40:07;;;;;;;76.20;11.05;;;27.00;71.70;;;;;;5048717;28;20089;-64
2023/06/10 09:42:35;;;;;;;61.60;10.68;;;27.00;71.90;;;;;;5052052;28;20044;-62
2023/06/10 09:45:02;;;;;;;61.70;11.63;;;27.10;71.80;;;;;;5051231;28;20115;-74
2023/06/10 09:47:28;;;;;;;70.07;12.05;;;27.20;72.10;;;;;;5039264;28;20111;-72
2023/06/10 09:49:53;;;;;;;61.60;11.05;;;27.10;71.80;;;;;;5034869;28;20049;-71
2023/06/10 09:52:26;;;;;;;62.35;9.88;;;27.10;72.00;;;;;;5045028;28;20398;-72
2023/06/10 09:54:52;;;;;;;60.90;10.75;;;27.20;72.60;;;;;;5051650;28;20057;-62
2023/06/10 09:57:19;;;;;;;58.78;10.13;;;27.00;72.10;;;;;;5045902;28;20756;-67
2023/06/10 09:59:45;;;;;;;57.00;10.32;;;27.00;72.20;;;;;;5031747;28;20180;-66
2023/06/10 10:02:17;;;;;;;34.83;7.97;;;27.30;72.40;;;;;;5035229;28;20095;-67
2023/06/10 10:04:44;;;;;;;43.42;9.02;;;27.00;72.60;;;;;;5037683;28;20084;-70
2023/06/10 10:07:10;;;;;;;44.80;8.30;;;27.10;72.20;;;;;;5037424;28;20048;-68
2023/06/10 10:09:40;;;;;;;41.42;8.25;;;27.10;72.70;;;;;;5037850;28;20442;-66
2023/06/10 10:12:16;;;;;;;32.20;7.28;;;27.20;71.30;;;;;;5032357;28;20046;-65
2023/06/10 10:14:49;;;;;;;20.83;6.97;;;27.00;71.50;;;;;;5034506;28;20053;-70
2023/06/10 10:17:17;;;;;;;26.35;7.18;;;27.00;71.80;;;;;;5040678;28;20048;-66
2023/06/10 10:19:53;;;;;;;27.25;7.20;;;26.90;71.80;;;;;;5038105;28;20044;-69
2023/06/10 10:22:30;;;;;;;28.17;8.82;;;26.80;72.70;;;;;;5037739;28;20051;-71
2023/06/10 10:24:57;;;;;;;31.85;7.97;;;27.00;72.30;;;;;;5044063;28;20049;-71
2023/06/10 10:27:41;;;;;;;21.23;7.10;;;27.00;73.00;;;;;;5042242;28;20045;-71
2023/06/10 10:30:09;;;;;;;19.63;6.80;;;26.90;73.20;;;;;;5048679;28;20037;-68
2023/06/10 10:32:40;;;;;;;19.08;6.65;;;27.10;72.30;;;;;;5044955;28;20111;-67
2023/06/10 10:35:17;;;;;;;19.98;6.68;;;26.70;72.40;;;;;;5034035;28;20098;-69
2023/06/10 10:37:43;;;;;;;16.52;6.65;;;26.90;73.10;;;;;;5035191;28;20053;-70
2023/06/10 10:40:09;;;;;;;24.42;7.15;;;26.60;72.00;;;;;;5026573;28;20045;-74
2023/06/10 10:42:36;;;;;;;13.68;6.45;;;26.80;72.30;;;;;;5028206;28;20052;-73
2023/06/10 10:45:02;;;;;;;12.48;6.47;;;26.90;72.20;;;;;;5054376;28;20041;-74
2023/06/10 10:47:32;;;;;;;13.52;5.82;;;26.90;73.00;;;;;;5053061;28;20049;-73
2023/06/10 10:50:01;;;;;;;20.27;6.35;;;26.70;71.90;;;;;;5035929;28;20045;-61
2023/06/10 10:52:28;;;;;;;14.60;6.40;;;26.60;71.80;;;;;;5053005;28;20049;-59
2023/06/10 10:54:54;;;;;;;13.43;5.60;;;26.60;73.20;;;;;;5042098;28;20394;-68
2023/06/10 10:57:21;;;;;;;11.38;5.25;;;26.60;73.00;;;;;;5045948;28;20124;-70
2023/06/10 10:59:59;;;;;;;16.63;5.72;;;26.70;73.40;;;;;;5051998;28;20056;-74
2023/06/10 11:02:40;;;;;;;14.25;6.13;;;26.70;72.30;;;;;;5054709;28;20084;-74
2023/06/10 11:05:07;;;;;;;12.85;6.00;;;26.90;73.80;;;;;;5042777;28;20056;-74
2023/06/10 11:07:34;;;;;;;10.75;5.25;;;26.80;72.80;;;;;;5033998;28;20049;-71
2023/06/10 11:10:06;;;;;;;11.25;5.70;;;26.90;73.70;;;;;;5041543;28;20056;-73
2023/06/10 11:12:52;;;;;;;15.60;5.55;;;26.80;72.10;;;;;;5054307;28;20161;-74
2023/06/10 11:15:29;;;;;;;9.40;5.32;;;26.80;72.60;;;;;;5033222;28;20045;-66
2023/06/10 11:18:15;;;;;;;14.45;6.03;;;26.70;73.70;;;;;;5046498;28;20048;-74
2023/06/10 11:20:50;;;;;;;10.68;5.05;;;26.70;72.60;;;;;;5042576;28;20111;-69
2023/06/10 11:23:27;;;;;;;10.48;5.00;;;26.80;73.90;;;;;;5043847;28;20057;-69
2023/06/10 11:26:12;;;;;;;12.07;4.90;;;26.80;73.90;;;;;;5043226;28;20046;-74
2023/06/10 11:28:58;;;;;;;11.38;4.65;;;27.20;74.60;;;;;;5045179;28;20456;-72
2023/06/10 11:31:25;;;;;;;11.60;5.47;;;26.60;73.60;;;;;;5038290;28;20067;-74
2023/06/10 11:33:55;;;;;;;10.48;5.53;;;26.80;73.70;;;;;;5052296;28;20407;-74
2023/06/10 11:36:21;;;;;;;12.73;5.53;;;26.80;73.90;;;;;;5050078;28;20154;-74
2023/06/10 11:38:47;;;;;;;8.68;4.35;;;27.00;73.50;;;;;;5052137;28;20052;-73
2023/06/10 11:41:14;;;;;;;7.43;4.57;;;26.80;73.60;;;;;;5051692;28;20151;-71
2023/06/10 11:43:44;;;;;;;7.50;5.07;;;26.80;73.40;;;;;;5040676;28;20395;-74
2023/06/10 11:46:10;;;;;;;11.15;5.45;;;26.70;73.60;;;;;;5033868;28;20049;-74
2023/06/10 11:48:36;;;;;;;8.07;4.63;;;26.70;73.20;;;;;;5043266;28;20577;-73
2023/06/10 11:51:06;;;;;;;9.60;5.30;;;26.90;72.90;;;;;;5043096;28;20045;-73
2023/06/10 11:53:32;;;;;;;9.18;4.97;;;26.80;73.10;;;;;;5029115;28;20052;-72
2023/06/10 11:55:58;;;;;;;11.07;5.38;;;26.70;72.80;;;;;;5032762;28;20131;-72
2023/06/10 11:58:23;;;;;;;12.70;5.70;;;26.80;72.80;;;;;;5039284;28;20490;-68
2023/06/10 12:01:01;;;;;;;9.73;5.43;;;26.60;72.70;;;;;;5035000;28;20132;-74
2023/06/10 12:03:27;;;;;;;10.48;4.78;;;27.00;72.40;;;;;;5032016;28;20057;-72
2023/06/10 12:05:57;;;;;;;12.02;4.63;;;26.80;72.80;;;;;;5035535;28;20095;-70
2023/06/10 12:08:23;;;;;;;9.23;4.65;;;26.80;73.00;;;;;;5034156;28;20049;-71
2023/06/10 12:10:48;;;;;;;10.25;4.78;;;26.80;72.80;;;;;;5050630;28;20040;-73
2023/06/10 12:13:14;;;;;;;7.80;4.45;;;26.80;73.00;;;;;;5053441;28;20394;-73
2023/06/10 12:15:40;;;;;;;9.35;4.95;;;26.70;73.00;;;;;;5052307;28;20452;-71
2023/06/10 12:18:06;;;;;;;12.45;4.95;;;26.80;72.90;;;;;;5016184;28;20038;-74
2023/06/10 12:20:33;;;;;;;10.63;5.63;;;26.90;73.00;;;;;;5025690;28;20136;-70
2023/06/10 12:23:00;;;;;;;9.05;5.28;;;27.00;73.10;;;;;;5033846;28;20099;-79
2023/06/10 12:25:27;;;;;;;8.43;4.65;;;26.80;73.00;;;;;;5048951;28;20440;-76
2023/06/10 12:27:53;;;;;;;13.23;4.70;;;26.90;73.10;;;;;;5053416;28;20044;-67
2023/06/10 12:30:20;;;;;;;8.77;4.70;;;26.70;73.60;;;;;;5050718;28;20154;-74
2023/06/10 12:32:46;;;;;;;7.88;4.90;;;26.90;73.30;;;;;;5050751;28;20044;-76
2023/06/10 12:35:19;;;;;;;7.97;4.90;;;26.80;72.90;;;;;;5052953;28;20127;-80
2023/06/10 12:38:02;;;;;;;8.75;4.72;;;26.40;73.10;;;;;;5052762;28;20072;-63
2023/06/10 12:40:32;;;;;;;8.70;4.32;;;26.90;72.00;;;;;;5037426;28;20095;-61
2023/06/10 12:42:58;;;;;;;7.55;4.25;;;26.60;73.20;;;;;;5052252;28;20041;-61